Time;durP1;ratioP1;P1;durP2;ratioP2;P2;SDS_P1;SDS_P2;PMS_P1;PMS_P2;Temp;Humidity;BMP_temperature;BMP_pressure;BME280_temperature;BME280_humidity;BME280_pressure;Samples;Min_cycle;Max_cycle;Signal;HPM_P1;HPM_P2
2023/08/05 00:00:04;;;;;;;4.45;4.05;;;;;;;14.40;100.00;98570.22;4121953;28;20234;-45
2023/08/05 00:02:06;;;;;;;3.55;2.80;;;;;;;14.40;100.00;98570.22;4103946;28;20235;-45
2023/08/05 00:04:08;;;;;;;6.32;3.85;;;;;;;14.39;100.00;98576.81;4117898;28;20214;-45
2023/08/05 00:06:12;;;;;;;2.97;2.75;;;;;;;14.44;100.00;98571.34;4126489;28;20218;-44
2023/08/05 00:08:18;;;;;;;6.35;3.33;;;;;;;14.34;100.00;98572.16;4120905;28;20289;-47
2023/08/05 00:10:20;;;;;;;6.00;3.28;;;;;;;14.44;100.00;98572.16;4123912;28;20201;-46
2023/08/05 00:12:21;;;;;;;3.47;3.05;;;;;;;14.23;100.00;98577.91;4126633;28;20434;-45
2023/08/05 00:14:23;;;;;;;3.20;2.70;;;;;;;14.18;100.00;98578.69;4117302;28;20206;-46
2023/08/05 00:16:25;;;;;;;3.88;3.15;;;;;;;14.22;100.00;98579.81;4119503;28;20215;-45
2023/08/05 00:18:26;;;;;;;2.80;2.60;;;;;;;14.17;100.00;98585.28;4125094;28;20654;-46
2023/08/05 00:20:28;;;;;;;3.47;3.20;;;;;;;14.27;100.00;98590.84;4125459;28;20231;-46
2023/08/05 00:22:30;;;;;;;4.68;2.90;;;;;;;14.17;100.00;98598.22;4126378;28;20237;-47
2023/08/05 00:24:32;;;;;;;3.55;3.05;;;;;;;14.19;100.00;98596.91;4117635;28;20221;-46
2023/08/05 00:26:34;;;;;;;7.47;2.75;;;;;;;14.26;100.00;98594.72;4117930;28;20654;-47
2023/08/05 00:28:35;;;;;;;3.58;3.30;;;;;;;14.10;100.00;98590.22;4124381;28;20217;-45
2023/08/05 00:30:37;;;;;;;3.47;3.17;;;;;;;14.14;100.00;98588.59;4127067;28;20206;-46
2023/08/05 00:32:39;;;;;;;3.50;3.13;;;;;;;14.09;100.00;98596.00;4129319;28;20299;-47
2023/08/05 00:34:41;;;;;;;4.70;2.72;;;;;;;14.08;100.00;98594.31;4125234;28;20206;-47
2023/08/05 00:36:42;;;;;;;11.05;4.60;;;;;;;14.14;100.00;98599.59;4118333;28;20209;-45
2023/08/05 00:38:44;;;;;;;4.05;3.65;;;;;;;14.11;100.00;98600.13;4110910;28;20218;-46
2023/08/05 00:40:46;;;;;;;5.07;2.90;;;;;;;14.14;100.00;98599.59;4118475;28;20285;-47
2023/08/05 00:42:48;;;;;;;5.68;3.60;;;;;;;14.06;100.00;98597.38;4126601;28;20218;-45
2023/08/05 00:44:49;;;;;;;3.45;3.15;;;;;;;14.13;100.00;98595.19;4126880;28;20704;-45
2023/08/05 00:46:52;;;;;;;4.43;2.92;;;;;;;14.21;100.00;98593.84;4125627;28;20233;-46
2023/08/05 00:48:54;;;;;;;8.98;3.17;;;;;;;14.01;100.00;98602.84;4126913;28;20202;-45
2023/08/05 00:50:55;;;;;;;3.97;3.67;;;;;;;13.79;100.00;98596.72;4118417;28;20893;-46
2023/08/05 00:52:58;;;;;;;5.43;3.75;;;;;;;13.81;100.00;98600.03;4102479;28;20298;-46
2023/08/05 00:55:00;;;;;;;5.10;3.53;;;;;;;13.90;100.00;98595.66;4126566;28;21133;-47
2023/08/05 00:57:02;;;;;;;12.60;4.05;;;;;;;13.92;100.00;98596.22;4102422;28;20210;-46
2023/08/05 00:59:03;;;;;;;6.75;3.33;;;;;;;13.87;100.00;98592.59;4121114;28;20218;-46
2023/08/05 01:01:05;;;;;;;4.53;4.03;;;;;;;13.76;100.00;98596.44;4126393;28;20228;-47
2023/08/05 01:03:07;;;;;;;6.18;3.90;;;;;;;13.76;100.00;98611.00;4119821;28;20206;-46
2023/08/05 01:05:09;;;;;;;7.15;3.92;;;;;;;13.76;100.00;98608.25;4126587;28;20257;-46
2023/08/05 01:07:12;;;;;;;3.83;3.17;;;;;;;13.81;100.00;98604.69;4119239;28;20226;-45
2023/08/05 01:09:14;;;;;;;3.70;3.42;;;;;;;13.84;100.00;98604.16;4125699;28;20697;-46
2023/08/05 01:11:16;;;;;;;3.72;3.13;;;;;;;13.83;100.00;98602.50;4121105;28;20230;-47
2023/08/05 01:13:18;;;;;;;6.85;3.33;;;;;;;13.79;100.00;98607.72;4106531;28;20253;-47
2023/08/05 01:15:19;;;;;;;4.55;2.95;;;;;;;13.74;100.00;98604.09;4120807;28;20222;-45
2023/08/05 01:17:21;;;;;;;2.78;2.58;;;;;;;13.71;100.00;98597.22;4117842;28;20206;-48
2023/08/05 01:19:25;;;;;;;5.70;3.00;;;;;;;13.68;100.00;98606.00;4121750;28;20552;-46
2023/08/05 01:21:29;;;;;;;5.30;2.55;;;;;;;13.63;100.00;98614.22;4106597;28;20238;-47
2023/08/05 01:23:48;;;;;;;5.13;2.67;;;;;;;13.66;100.00;98602.72;4134501;28;20216;-46
2023/08/05 01:25:51;;;;;;;4.00;2.92;;;;;;;13.57;100.00;98609.78;4128329;28;20210;-46
2023/08/05 01:27:53;;;;;;;2.53;2.33;;;;;;;13.59;100.00;98613.13;4116022;28;20646;-48
2023/08/05 01:29:55;;;;;;;5.30;2.53;;;;;;;13.59;100.00;98602.13;4120214;28;20210;-47
2023/08/05 01:31:57;;;;;;;3.80;2.47;;;;;;;13.55;100.00;98601.00;4128701;28;20332;-46
2023/08/05 01:33:59;;;;;;;2.80;2.60;;;;;;;13.57;100.00;98593.28;4115998;28;20265;-48
2023/08/05 01:36:01;;;;;;;3.22;2.92;;;;;;;13.63;100.00;98592.22;4122233;28;20206;-46
2023/08/05 01:38:03;;;;;;;2.47;2.22;;;;;;;13.61;100.00;98580.69;4124780;28;20272;-46
2023/08/05 01:40:05;;;;;;;5.85;3.35;;;;;;;13.59;100.00;98579.28;4123373;28;20786;-46
2023/08/05 01:42:07;;;;;;;2.78;2.58;;;;;;;13.55;100.00;98573.50;4107049;28;20775;-46
2023/08/05 01:44:09;;;;;;;6.10;3.15;;;;;;;13.47;100.00;98575.91;4118657;28;20214;-46
2023/08/05 01:46:11;;;;;;;4.60;2.70;;;;;;;13.44;100.00;98580.03;4136992;28;20214;-46
2023/08/05 01:48:12;;;;;;;6.20;3.50;;;;;;;13.48;100.00;98575.66;4130278;28;20301;-46
2023/08/05 01:50:14;;;;;;;2.80;2.60;;;;;;;13.45;100.00;98573.47;4136618;28;20632;-45
2023/08/05 01:52:16;;;;;;;3.75;2.90;;;;;;;13.47;100.00;98571.25;4113021;28;20237;-47
2023/08/05 01:54:18;;;;;;;4.15;2.83;;;;;;;13.54;100.00;98565.50;4128646;28;20272;-46
2023/08/05 01:56:19;;;;;;;2.95;2.75;;;;;;;13.43;100.00;98559.13;4136679;28;20209;-48
2023/08/05 01:58:21;;;;;;;8.98;4.05;;;;;;;13.40;100.00;98564.34;4126771;28;20209;-46
2023/08/05 02:00:23;;;;;;;3.38;3.08;;;;;;;13.34;100.00;98570.91;4120003;28;20231;-46
2023/08/05 02:02:25;;;;;;;3.83;3.03;;;;;;;13.33;100.00;98567.34;4128868;28;20284;-48
2023/08/05 02:04:26;;;;;;;6.50;2.83;;;;;;;13.30;100.00;98565.09;4122011;28;20262;-46
2023/08/05 02:06:28;;;;;;;3.45;3.15;;;;;;;13.31;100.00;98569.50;4136196;28;20213;-46
2023/08/05 02:08:30;;;;;;;7.55;4.00;;;;;;;13.39;100.00;98563.53;4124357;28;20390;-45
2023/08/05 02:10:31;;;;;;;4.10;3.35;;;;;;;13.25;100.00;98570.56;4121393;28;20195;-46
2023/08/05 02:12:33;;;;;;;4.35;2.95;;;;;;;13.35;100.00;98578.88;4122542;28;20734;-47
2023/08/05 02:14:35;;;;;;;10.93;3.30;;;;;;;13.29;100.00;98571.72;4119428;28;20214;-47
2023/08/05 02:16:37;;;;;;;4.47;3.95;;;;;;;13.33;100.00;98570.09;4120615;28;20214;-49
2023/08/05 02:18:39;;;;;;;11.43;3.67;;;;;;;13.28;100.00;98567.31;4121236;28;20302;-47
2023/08/05 02:20:40;;;;;;;8.75;4.38;;;;;;;13.22;100.00;98565.63;4120712;28;20726;-48
2023/08/05 02:22:42;;;;;;;6.32;3.90;;;;;;;13.14;100.00;98563.38;4120748;28;20235;-48
2023/08/05 02:24:44;;;;;;;5.65;3.22;;;;;;;13.14;100.00;98560.63;4138197;28;20214;-45
2023/08/05 02:26:46;;;;;;;3.95;3.45;;;;;;;13.08;100.00;98563.59;4104333;28;20210;-46
2023/08/05 02:28:47;;;;;;;3.65;3.35;;;;;;;13.12;100.00;98557.31;4123578;28;20210;-47
2023/08/05 02:30:49;;;;;;;10.02;4.07;;;;;;;13.14;100.00;98557.03;4127398;28;20213;-46
2023/08/05 02:32:51;;;;;;;8.25;3.63;;;;;;;13.16;100.00;98552.94;4120115;28;21000;-46
2023/08/05 02:34:53;;;;;;;4.32;3.97;;;;;;;13.11;100.00;98561.16;4119761;28;20210;-45
2023/08/05 02:36:54;;;;;;;4.45;4.15;;;;;;;13.15;100.00;98559.53;4124978;28;21002;-46
2023/08/05 02:38:56;;;;;;;5.22;4.07;;;;;;;13.12;100.00;98551.84;4120230;28;20225;-47
2023/08/05 02:40:58;;;;;;;6.45;4.40;;;;;;;13.03;100.00;98547.91;4121223;28;20230;-46
2023/08/05 02:43:00;;;;;;;4.28;3.97;;;;;;;13.02;100.00;98548.16;4111039;28;20219;-51
2023/08/05 02:45:02;;;;;;;4.57;4.15;;;;;;;12.97;100.00;98546.22;4118533;28;20222;-48
2023/08/05 02:47:04;;;;;;;5.15;4.57;;;;;;;12.95;100.00;98542.91;4137018;28;20209;-46
2023/08/05 02:49:08;;;;;;;5.28;4.88;;;;;;;12.97;100.00;98542.66;4119767;28;20222;-46
2023/08/05 02:51:10;;;;;;;5.25;4.85;;;;;;;12.94;100.00;98538.47;4120460;28;20317;-46
2023/08/05 02:53:12;;;;;;;11.48;4.75;;;;;;;12.90;100.00;98545.59;4120927;28;20774;-46
2023/08/05 02:55:13;;;;;;;5.40;4.90;;;;;;;12.90;100.00;98539.28;4121670;28;20226;-46
2023/08/05 02:57:15;;;;;;;12.75;4.30;;;;;;;12.94;100.00;98543.97;4118979;28;20330;-46
2023/08/05 02:59:17;;;;;;;4.20;3.90;;;;;;;12.97;100.00;98532.47;4119362;28;20214;-46
2023/08/05 03:01:19;;;;;;;4.72;4.28;;;;;;;12.92;100.00;98532.44;4119423;28;20242;-47
2023/08/05 03:03:20;;;;;;;4.90;4.28;;;;;;;12.97;100.00;98532.47;4122236;28;20210;-48
2023/08/05 03:05:22;;;;;;;4.75;4.22;;;;;;;12.95;100.00;98534.69;4120681;28;20711;-45
2023/08/05 03:07:24;;;;;;;5.85;3.80;;;;;;;12.84;100.00;98530.16;4126628;28;20253;-45
2023/08/05 03:09:26;;;;;;;5.85;3.45;;;;;;;12.80;100.00;98526.31;4103308;28;20207;-47
2023/08/05 03:11:31;;;;;;;6.25;3.70;;;;;;;12.68;100.00;98528.41;4123958;28;20277;-46
2023/08/05 03:13:32;;;;;;;3.88;3.58;;;;;;;12.68;100.00;98517.44;4120374;28;20624;-45
2023/08/05 03:15:34;;;;;;;4.22;3.35;;;;;;;12.63;100.00;98519.31;4134962;28;20249;-47
2023/08/05 03:17:36;;;;;;;4.35;2.70;;;;;;;12.60;100.00;98509.69;4120056;28;20209;-46
2023/08/05 03:19:38;;;;;;;6.28;2.92;;;;;;;12.61;100.00;98516.81;4123058;28;20631;-45
2023/08/05 03:21:39;;;;;;;3.95;2.92;;;;;;;12.62;100.00;98513.00;4126581;28;20238;-46
2023/08/05 03:23:41;;;;;;;3.90;3.20;;;;;;;12.63;100.00;98514.63;4105248;28;20271;-46
2023/08/05 03:25:43;;;;;;;3.65;2.47;;;;;;;12.58;100.00;98517.34;4139119;28;20313;-47
2023/08/05 03:27:45;;;;;;;3.30;3.00;;;;;;;12.60;100.00;98514.34;4118573;28;20313;-45
2023/08/05 03:29:47;;;;;;;3.83;3.53;;;;;;;12.49;100.00;98518.06;4119581;28;20274;-47
2023/08/05 03:31:48;;;;;;;4.43;4.00;;;;;;;12.47;100.00;98518.38;4119847;28;20277;-47
2023/08/05 03:33:50;;;;;;;5.22;4.82;;;;;;;12.47;100.00;98521.09;4137576;28;20634;-45
2023/08/05 03:35:52;;;;;;;10.70;5.32;;;;;;;12.42;100.00;98518.31;4125954;28;20621;-47
2023/08/05 03:37:54;;;;;;;5.22;4.70;;;;;;;12.42;100.00;98529.28;4127338;28;20969;-47
2023/08/05 03:39:56;;;;;;;4.80;4.35;;;;;;;12.42;100.00;98537.53;4119353;28;20214;-45
2023/08/05 03:41:58;;;;;;;4.82;4.32;;;;;;;12.47;100.00;98536.72;4120935;28;20230;-45
2023/08/05 03:44:01;;;;;;;5.50;3.75;;;;;;;12.46;100.00;98544.16;4115405;28;20257;-45
2023/08/05 03:46:03;;;;;;;4.28;3.95;;;;;;;12.47;100.00;98554.03;4120905;28;20304;-48
2023/08/05 03:48:05;;;;;;;8.98;4.07;;;;;;;12.45;100.00;98556.19;4121040;28;20303;-50
2023/08/05 03:50:08;;;;;;;5.82;3.80;;;;;;;12.47;100.00;98554.03;4103543;28;20276;-48
2023/08/05 03:52:10;;;;;;;5.28;3.95;;;;;;;12.49;100.00;98568.31;4121186;28;20313;-47
2023/08/05 03:54:11;;;;;;;5.13;3.17;;;;;;;12.43;100.00;98574.84;4126220;28;20676;-46
2023/08/05 03:56:13;;;;;;;3.58;3.05;;;;;;;12.41;100.00;98582.53;4120632;28;20257;-47
2023/08/05 03:58:17;;;;;;;3.60;3.28;;;;;;;12.39;100.00;98587.47;4118739;28;20242;-48
2023/08/05 04:00:19;;;;;;;3.45;3.00;;;;;;;12.34;100.00;98584.66;4127556;28;20599;-47
2023/08/05 04:02:20;;;;;;;10.32;3.70;;;;;;;12.42;100.00;98586.94;4118572;28;20251;-45
2023/08/05 04:04:22;;;;;;;4.32;3.03;;;;;;;12.33;100.00;98584.91;4122228;28;20257;-46
2023/08/05 04:06:25;;;;;;;6.63;3.47;;;;;;;12.39;100.00;98584.72;4126514;28;20727;-46
2023/08/05 04:08:27;;;;;;;4.63;2.95;;;;;;;12.34;100.00;98592.03;4121479;28;20247;-46
2023/08/05 04:10:30;;;;;;;6.35;3.22;;;;;;;12.29;100.00;98592.84;4117309;28;20218;-49
2023/08/05 04:12:35;;;;;;;4.70;3.05;;;;;;;12.38;100.00;98590.47;4120338;28;20714;-46
2023/08/05 04:14:37;;;;;;;3.40;3.10;;;;;;;12.31;100.00;98593.41;4127234;28;20293;-47
2023/08/05 04:16:40;;;;;;;4.32;3.03;;;;;;;12.35;100.00;98599.19;4112546;28;20206;-46
2023/08/05 04:18:43;;;;;;;8.18;4.00;;;;;;;12.35;100.00;98599.19;4105051;28;20218;-47
2023/08/05 04:20:46;;;;;;;4.30;3.90;;;;;;;12.39;100.00;98598.44;4117339;28;20203;-46
2023/08/05 04:22:49;;;;;;;5.07;4.75;;;;;;;12.14;100.00;98594.59;4105534;28;20226;-45
2023/08/05 04:24:51;;;;;;;5.93;4.05;;;;;;;12.19;100.00;98595.50;4121450;28;20280;-48
2023/08/05 04:26:53;;;;;;;6.40;4.85;;;;;;;12.19;100.00;98590.00;4109554;28;21092;-46
2023/08/05 04:28:55;;;;;;;4.88;3.67;;;;;;;12.18;100.00;98598.47;4124906;28;20205;-47
2023/08/05 04:30:57;;;;;;;3.78;3.15;;;;;;;12.17;100.00;98599.56;4115522;28;20322;-48
2023/08/05 04:32:59;;;;;;;3.85;3.65;;;;;;;12.21;100.00;98603.44;4117019;28;20210;-45
2023/08/05 04:35:01;;;;;;;2.75;2.55;;;;;;;12.26;100.00;98600.75;4126814;28;20210;-46
2023/08/05 04:37:19;;;;;;;3.05;2.80;;;;;;;12.23;100.00;98602.09;4110306;28;20230;-45
2023/08/05 04:39:21;;;;;;;3.35;3.10;;;;;;;12.22;100.00;98594.13;4126225;28;20216;-46
2023/08/05 04:41:23;;;;;;;4.28;3.60;;;;;;;12.26;100.00;98590.63;4118803;28;20238;-46
2023/08/05 04:43:25;;;;;;;4.05;3.75;;;;;;;12.26;100.00;98596.09;4117049;28;20226;-45
2023/08/05 04:45:26;;;;;;;3.50;3.20;;;;;;;12.24;100.00;98587.28;4123137;28;20648;-45
2023/08/05 04:47:28;;;;;;;5.30;3.88;;;;;;;12.25;100.00;98580.72;4122031;28;20214;-48
2023/08/05 04:49:30;;;;;;;8.90;3.30;;;;;;;12.26;100.00;98579.66;4104046;28;20216;-46
2023/08/05 04:51:32;;;;;;;4.35;3.95;;;;;;;12.29;100.00;98579.13;4119676;28;20230;-47
2023/08/05 04:53:33;;;;;;;8.32;5.15;;;;;;;12.37;100.00;98575.91;4103657;28;20258;-45
2023/08/05 04:55:35;;;;;;;9.50;5.55;;;;;;;12.30;100.00;98569.78;4129641;28;20584;-49
2023/08/05 04:57:37;;;;;;;6.22;5.72;;;;;;;12.11;100.00;98565.75;4118497;28;20206;-47
2023/08/05 04:59:39;;;;;;;6.18;5.68;;;;;;;12.16;100.00;98571.28;4103902;28;20262;-45
2023/08/05 05:01:41;;;;;;;5.95;5.50;;;;;;;12.18;100.00;98565.56;4134713;28;20755;-47
2023/08/05 05:03:46;;;;;;;12.68;6.20;;;;;;;12.22;100.00;98573.00;4128172;28;20210;-47
2023/08/05 05:05:47;;;;;;;6.95;6.35;;;;;;;12.24;100.00;98579.06;4120541;28;20293;-47
2023/08/05 05:07:49;;;;;;;6.20;5.60;;;;;;;12.29;100.00;98576.38;4120956;28;20303;-45
2023/08/05 05:09:51;;;;;;;20.17;5.30;;;;;;;12.31;100.00;98574.19;4127142;28;20206;-46
2023/08/05 05:11:54;;;;;;;10.02;5.93;;;;;;;12.19;100.00;98579.03;4120059;28;20249;-46
2023/08/05 05:13:59;;;;;;;6.20;5.57;;;;;;;12.15;100.00;98577.88;4119432;28;20220;-45
2023/08/05 05:16:02;;;;;;;8.95;5.43;;;;;;;12.02;100.00;98581.03;4119141;28;20623;-45
2023/08/05 05:18:04;;;;;;;7.00;4.75;;;;;;;12.13;100.00;98585.53;4125571;28;20246;-45
2023/08/05 05:20:07;;;;;;;5.50;4.65;;;;;;;12.23;100.00;98585.63;4126987;28;20232;-45
2023/08/05 05:22:10;;;;;;;4.88;4.55;;;;;;;12.28;100.00;98582.94;4118301;28;20413;-45
2023/08/05 05:24:11;;;;;;;4.68;4.35;;;;;;;12.37;100.00;98575.91;4122213;28;20209;-48
2023/08/05 05:26:13;;;;;;;4.88;4.35;;;;;;;12.20;100.00;98580.69;4123670;28;20253;-47
2023/08/05 05:28:15;;;;;;;4.47;4.07;;;;;;;12.29;100.00;98579.13;4126778;28;20210;-46
2023/08/05 05:30:20;;;;;;;4.22;3.92;;;;;;;12.40;100.00;98578.13;4124653;28;20210;-45
2023/08/05 05:32:21;;;;;;;3.47;3.22;;;;;;;12.54;100.00;98584.00;4137219;28;20625;-47
2023/08/05 05:34:23;;;;;;;4.65;4.35;;;;;;;12.55;100.00;98572.78;4113098;28;20210;-48
2023/08/05 05:36:25;;;;;;;4.90;4.50;;;;;;;12.63;100.00;98575.03;4118497;28;20211;-47
2023/08/05 05:38:27;;;;;;;4.82;4.50;;;;;;;12.70;100.00;98564.66;4117608;28;20229;-47
2023/08/05 05:40:28;;;;;;;5.35;4.45;;;;;;;12.71;100.00;98560.81;4119588;28;20211;-45
2023/08/05 05:42:30;;;;;;;36.72;5.75;;;;;;;12.69;100.00;98552.03;4120308;28;20285;-46
2023/08/05 05:44:32;;;;;;;5.30;5.00;;;;;;;12.71;100.00;98551.78;4120172;28;20214;-45
2023/08/05 05:46:34;;;;;;;4.53;4.13;;;;;;;12.83;100.00;98546.94;4126597;28;20595;-47
2023/08/05 05:48:36;;;;;;;6.70;5.07;;;;;;;12.83;100.00;98547.75;4127234;28;20285;-48
2023/08/05 05:50:40;;;;;;;7.05;3.75;;;;;;;12.65;100.00;98550.88;4125199;28;20289;-45
2023/08/05 05:52:42;;;;;;;4.43;4.13;;;;;;;12.67;100.00;98558.88;4117593;28;20291;-48
2023/08/05 05:54:44;;;;;;;3.78;3.47;;;;;;;12.76;100.00;98560.06;4116775;28;20214;-47
2023/08/05 05:56:45;;;;;;;5.15;4.70;;;;;;;12.87;100.00;98559.88;4117062;28;20848;-47
2023/08/05 05:58:47;;;;;;;4.93;4.63;;;;;;;12.89;100.00;98565.91;4109534;28;20285;-46
2023/08/05 06:00:56;;;;;;;11.20;4.50;;;;;;;12.92;100.00;98557.16;4118987;28;20262;-48
2023/08/05 06:02:58;;;;;;;7.75;4.80;;;;;;;12.99;100.00;98566.03;4116146;28;20214;-46
2023/08/05 06:05:00;;;;;;;3.90;3.67;;;;;;;12.95;100.00;98561.31;4125723;28;20214;-47
2023/08/05 06:07:02;;;;;;;14.55;4.13;;;;;;;12.72;100.00;98562.50;4125305;28;20294;-46
2023/08/05 06:09:05;;;;;;;4.15;3.85;;;;;;;12.88;100.00;98567.00;4125886;28;20210;-46
2023/08/05 06:11:07;;;;;;;3.90;3.60;;;;;;;12.81;100.00;98560.91;4121669;28;20314;-46
2023/08/05 06:13:09;;;;;;;3.83;3.53;;;;;;;12.93;100.00;98558.81;4129567;28;20214;-47
2023/08/05 06:15:11;;;;;;;3.88;3.58;;;;;;;12.99;100.00;98552.28;4122359;28;20233;-46
2023/08/05 06:17:13;;;;;;;4.22;3.92;;;;;;;13.11;100.00;98552.91;4121369;28;20665;-45
2023/08/05 06:19:14;;;;;;;4.75;4.35;;;;;;;13.22;100.00;98551.88;4124009;28;20210;-48
2023/08/05 06:21:16;;;;;;;3.35;2.67;;;;;;;13.35;100.00;98548.66;4128846;28;20722;-46
2023/08/05 06:23:18;;;;;;;4.00;2.63;;;;;;;13.58;100.00;98550.94;4117993;28;20262;-48
2023/08/05 06:25:22;;;;;;;4.18;3.67;;;;;;;13.60;100.00;98554.28;4121530;28;20647;-48
2023/08/05 06:27:24;;;;;;;3.30;3.10;;;;;;;13.76;100.00;98557.94;4129090;28;20669;-46
2023/08/05 06:29:26;;;;;;;3.35;3.05;;;;;;;13.88;100.00;98551.09;4122335;28;20263;-45
2023/08/05 06:31:27;;;;;;;3.75;3.42;;;;;;;13.83;100.00;98564.81;4120282;28;20237;-46
2023/08/05 06:33:29;;;;;;;3.85;3.50;;;;;;;14.04;100.00;98566.53;4120328;28;20218;-46
2023/08/05 06:35:33;;;;;;;3.13;2.92;;;;;;;14.02;100.00;98557.72;4118842;28;20222;-45
2023/08/05 06:37:35;;;;;;;3.60;3.35;;;;;;;14.05;100.00;98573.72;4113194;28;20214;-46
2023/08/05 06:39:37;;;;;;;3.75;3.28;;;;;;;14.29;100.00;98563.88;4108468;28;20278;-46
2023/08/05 06:41:41;;;;;;;3.50;3.20;;;;;;;14.26;100.00;98558.94;4139520;28;20234;-46
2023/08/05 06:43:43;;;;;;;4.00;3.70;;;;;;;14.19;100.00;98558.38;4121977;28;20206;-45
2023/08/05 06:45:47;;;;;;;3.55;3.35;;;;;;;14.32;100.00;98552.34;4127983;28;20633;-45
2023/08/05 06:47:49;;;;;;;2.42;2.28;;;;;;;14.53;100.00;98553.16;4117232;28;20336;-46
2023/08/05 06:49:50;;;;;;;3.38;3.17;;;;;;;14.45;100.00;98554.56;4129425;28;20210;-46
2023/08/05 06:51:52;;;;;;;3.22;2.92;;;;;;;14.90;100.00;98549.03;4126381;28;20226;-46
2023/08/05 06:53:58;;;;;;;2.53;2.35;;;;;;;15.34;100.00;98550.09;4120297;28;20210;-45
2023/08/05 06:56:01;;;;;;;2.78;2.58;;;;;;;15.68;100.00;98540.03;4126864;28;20206;-46
2023/08/05 06:58:03;;;;;;;2.83;2.63;;;;;;;15.99;100.00;98546.25;4122404;28;20225;-47
2023/08/05 07:00:05;;;;;;;2.88;2.67;;;;;;;15.75;100.00;98537.81;4137681;28;20280;-47
2023/08/05 07:02:07;;;;;;;2.60;2.40;;;;;;;16.23;100.00;98536.19;4127862;28;20244;-46
2023/08/05 07:04:09;;;;;;;2.63;2.45;;;;;;;16.49;100.00;98541.25;4133163;28;20621;-47
2023/08/05 07:06:11;;;;;;;3.40;2.63;;;;;;;16.62;100.00;98543.38;4121300;28;20293;-46
2023/08/05 07:08:12;;;;;;;2.67;2.47;;;;;;;16.87;100.00;98548.72;4128087;28;20272;-46
2023/08/05 07:10:14;;;;;;;2.92;2.15;;;;;;;17.06;100.00;98546.88;4128636;28;20790;-47
2023/08/05 07:12:16;;;;;;;3.38;2.17;;;;;;;17.28;100.00;98544.44;4128943;28;20249;-47
2023/08/05 07:14:18;;;;;;;1.80;1.60;;;;;;;17.15;100.00;98545.13;4112459;28;20210;-46
2023/08/05 07:16:19;;;;;;;2.97;1.55;;;;;;;17.62;100.00;98539.66;4120240;28;20221;-45
2023/08/05 07:18:21;;;;;;;1.77;1.67;;;;;;;17.80;100.00;98539.69;4127911;28;20281;-46
2023/08/05 07:20:25;;;;;;;2.30;2.20;;;;;;;18.09;100.00;98534.91;4127894;28;20210;-45
2023/08/05 07:22:27;;;;;;;2.55;2.35;;;;;;;18.12;100.00;98528.75;4133783;28;20229;-46
2023/08/05 07:24:29;;;;;;;2.10;1.95;;;;;;;18.40;100.00;98529.78;4122450;28;20642;-47
2023/08/05 07:26:31;;;;;;;4.05;2.10;;;;;;;18.35;100.00;98527.06;4118165;28;20210;-45
2023/08/05 07:28:32;;;;;;;2.22;1.75;;;;;;;18.58;100.00;98527.00;4122147;28;20581;-46
2023/08/05 07:30:34;;;;;;;2.17;1.95;;;;;;;19.11;98.58;98522.75;4123140;28;20210;-45
2023/08/05 07:32:36;;;;;;;7.03;2.15;;;;;;;19.34;98.38;98523.75;4122835;28;20235;-46
2023/08/05 07:34:38;;;;;;;2.63;1.90;;;;;;;19.04;98.05;98514.00;4119469;28;20220;-45
2023/08/05 07:36:42;;;;;;;2.92;1.90;;;;;;;19.42;95.29;98503.59;4133820;28;20333;-46
2023/08/05 07:38:47;;;;;;;2.53;1.90;;;;;;;19.38;96.86;98506.19;4121677;28;20650;-46
2023/08/05 07:40:49;;;;;;;2.97;2.78;;;;;;;19.45;96.42;98500.22;4136159;28;20256;-45
2023/08/05 07:42:52;;;;;;;3.72;2.55;;;;;;;19.20;99.48;98497.94;4123540;28;20304;-46
2023/08/05 07:44:53;;;;;;;2.50;2.30;;;;;;;19.28;99.43;98503.63;4126587;28;20213;-45
2023/08/05 07:46:56;;;;;;;3.45;2.85;;;;;;;19.85;97.68;98496.63;4118892;28;20265;-46
2023/08/05 07:49:00;;;;;;;2.83;2.42;;;;;;;19.94;97.92;98492.81;4121572;28;20213;-47
2023/08/05 07:51:06;;;;;;;2.45;2.25;;;;;;;20.54;92.70;98496.16;4105961;28;20217;-47
2023/08/05 07:53:09;;;;;;;3.33;2.53;;;;;;;19.55;95.17;98488.91;4119771;28;20242;-46
2023/08/05 07:55:11;;;;;;;2.55;2.35;;;;;;;19.84;96.80;98487.47;4126643;28;20205;-45
2023/08/05 07:57:12;;;;;;;2.70;2.50;;;;;;;19.93;95.06;98490.34;4118626;28;20267;-46
2023/08/05 07:59:17;;;;;;;3.83;2.83;;;;;;;20.18;95.79;98498.16;4118292;28;20264;-46
2023/08/05 08:01:22;;;;;;;3.83;3.00;;;;;;;20.27;93.41;98501.81;4118903;28;20226;-46
2023/08/05 08:03:28;;;;;;;2.38;2.03;;;;;;;21.27;88.81;98494.59;4114673;28;20265;-46
2023/08/05 08:05:30;;;;;;;2.67;2.47;;;;;;;21.44;86.68;98496.63;4120008;28;20249;-47
2023/08/05 08:07:32;;;;;;;2.38;2.17;;;;;;;21.96;84.23;98495.69;4133382;28;20611;-47
2023/08/05 08:09:34;;;;;;;2.88;2.65;;;;;;;21.02;85.61;98488.84;4122693;28;20225;-45
2023/08/05 08:11:36;;;;;;;7.72;2.90;;;;;;;21.22;85.71;98491.09;4102749;28;20230;-46
2023/08/05 08:13:38;;;;;;;3.83;2.40;;;;;;;21.24;85.31;98486.06;4117542;28;20543;-46
2023/08/05 08:15:40;;;;;;;3.20;2.63;;;;;;;21.18;83.78;98487.31;4119351;28;20225;-45
2023/08/05 08:17:42;;;;;;;4.78;2.67;;;;;;;20.78;78.23;98477.22;4118615;28;20668;-45
2023/08/05 08:19:45;;;;;;;2.88;2.28;;;;;;;20.83;81.42;98483.47;4122712;28;20206;-45
2023/08/05 08:21:47;;;;;;;4.47;2.55;;;;;;;21.34;82.21;98469.06;4111556;28;20229;-47
2023/08/05 08:23:48;;;;;;;3.60;2.65;;;;;;;21.32;81.24;98471.34;4127575;28;20206;-45
2023/08/05 08:25:50;;;;;;;6.88;2.60;;;;;;;21.23;82.32;98462.16;4117497;28;20214;-47
2023/08/05 08:27:52;;;;;;;2.75;2.55;;;;;;;21.54;80.05;98463.75;4117640;28;20648;-44
2023/08/05 08:29:53;;;;;;;2.97;2.47;;;;;;;22.19;78.69;98472.13;4134583;28;20244;-46
2023/08/05 08:31:55;;;;;;;3.05;2.25;;;;;;;21.99;75.83;98464.38;4127048;28;20958;-45
2023/08/05 08:33:57;;;;;;;3.53;2.38;;;;;;;21.30;76.85;98459.72;4105284;28;20618;-45
2023/08/05 08:35:59;;;;;;;2.50;2.28;;;;;;;22.06;79.10;98454.41;4122563;28;20288;-46
2023/08/05 08:38:01;;;;;;;6.85;2.22;;;;;;;22.17;78.58;98461.28;4120210;28;20556;-47
2023/08/05 08:40:03;;;;;;;2.28;1.98;;;;;;;22.37;73.52;98457.88;4126144;28;20205;-45
2023/08/05 08:42:06;;;;;;;2.47;2.28;;;;;;;21.38;73.06;98458.94;4135231;28;20707;-46
2023/08/05 08:44:08;;;;;;;2.28;1.85;;;;;;;21.85;77.24;98464.50;4120218;28;20245;-46
2023/08/05 08:46:12;;;;;;;2.83;1.60;;;;;;;21.84;74.65;98462.06;4119869;28;20210;-46
2023/08/05 08:48:15;;;;;;;2.15;1.90;;;;;;;21.65;72.32;98453.13;4105752;28;20215;-45
2023/08/05 08:50:17;;;;;;;1.98;1.63;;;;;;;20.66;71.56;98446.38;4119337;28;20220;-45
2023/08/05 08:52:19;;;;;;;1.60;1.30;;;;;;;20.79;74.62;98439.91;4126103;28;20264;-46
2023/08/05 08:54:26;;;;;;;2.38;1.42;;;;;;;21.42;76.12;98437.63;4110235;28;20232;-45
2023/08/05 08:56:31;;;;;;;2.65;1.73;;;;;;;21.18;73.04;98448.34;4119167;28;20267;-44
2023/08/05 08:58:33;;;;;;;3.22;1.88;;;;;;;21.29;72.74;98449.69;4120945;28;20252;-45
2023/08/05 09:00:36;;;;;;;1.77;1.50;;;;;;;21.31;73.81;98441.88;4126154;28;20217;-45
2023/08/05 09:02:38;;;;;;;3.58;1.73;;;;;;;21.26;75.76;98444.78;4125708;28;20233;-47
2023/08/05 09:04:41;;;;;;;3.03;1.73;;;;;;;20.75;75.26;98436.13;4108506;28;20245;-46
2023/08/05 09:06:46;;;;;;;1.60;1.50;;;;;;;21.23;73.44;98428.75;4102158;28;20665;-45
2023/08/05 09:08:50;;;;;;;1.98;1.70;;;;;;;21.47;72.19;98426.34;4100690;28;20271;-45
2023/08/05 09:10:51;;;;;;;1.83;1.73;;;;;;;20.87;74.27;98430.78;4125508;28;20213;-50
2023/08/05 09:12:57;;;;;;;2.78;2.08;;;;;;;20.72;76.50;98417.28;4130957;28;20201;-45
2023/08/05 09:14:59;;;;;;;2.47;1.77;;;;;;;20.42;79.06;98420.84;4120682;28;20220;-45
2023/08/05 09:17:01;;;;;;;4.70;2.00;;;;;;;20.59;79.71;98420.97;4115570;28;20433;-45
2023/08/05 09:19:03;;;;;;;2.47;1.85;;;;;;;20.98;80.47;98421.06;4119956;28;20876;-45
2023/08/05 09:21:05;;;;;;;3.83;1.92;;;;;;;21.24;76.26;98419.25;4109075;28;20358;-46
2023/08/05 09:23:09;;;;;;;1.90;1.50;;;;;;;20.30;76.56;98426.16;4125896;28;20290;-45
2023/08/05 09:25:10;;;;;;;2.40;1.70;;;;;;;20.15;77.32;98415.38;4115902;28;20289;-46
2023/08/05 09:27:12;;;;;;;1.58;1.20;;;;;;;20.13;79.32;98420.44;4126756;28;20308;-46
2023/08/05 09:29:21;;;;;;;2.67;1.80;;;;;;;20.66;80.97;98421.34;4119310;28;20217;-46